Terminal Aerodrome Forecast
Issued by NWS Norman, OK

Home | Current Version | Previous Version | Text Only | Print | Product List | Glossary On
Versions: 1 2 3 4 5 6 7 8 9 10 11 12 13 14 15 16 17 18 19 20 21 22 23 24 25 26 27 28 29 30
000
FTUS44 KOUN 171122
TAFOKC
TAF
KOKC 171122Z 1712/1812 34007KT P6SM SCT150
      TEMPO 1712/1714 2SM BR VV004
     FM172100 06007KT P6SM SCT030 SCT100
     FM180800 12005KT P6SM BKN250=

USA.gov is the U.S. government's official web portal to all federal, state and local government web resources and services.